Time;durP1;ratioP1;P1;durP2;ratioP2;P2;SDS_P1;SDS_P2;PMS_P1;PMS_P2;Temp;Humidity;BMP_temperature;BMP_pressure;BME280_temperature;BME280_humidity;BME280_pressure;Samples;Min_cycle;Max_cycle;Signal;HPM_P1;HPM_P2
2021/12/16 00:30:06;;;;;;;22.70;13.87;;;;;;;2.49;100.00;97152.94;4786778;29;20234;-85
2021/12/16 00:36:29;;;;;;;23.80;14.03;;;;;;;2.42;100.00;97156.63;4698559;30;20229;-87
2021/12/16 00:43:47;;;;;;;20.63;12.83;;;;;;;2.39;100.00;97166.19;4685864;30;20277;-86
2021/12/16 01:00:49;;;;;;;;;;;;;;;;;;;;;
2021/12/16 01:03:55;;;;;;;20.73;12.20;;;;;;;2.37;100.00;97161.06;4803650;29;20538;-86
2021/12/16 01:59:16;;;;;;;15.30;9.77;;;;;;;2.30;100.00;97171.63;4654374;30;20687;-85
2021/12/16 02:02:03;;;;;;;;;;;;;;;;;;;;;
2021/12/16 02:12:03;;;;;;;13.97;9.20;;;;;;;2.31;100.00;97169.03;4628049;31;20271;-86
2021/12/16 02:40:56;;;;;;;;;;;;;;;;;;;;;
2021/12/16 02:50:38;;;;;;;14.33;9.50;;;;;;;2.24;100.00;97163.28;4725798;30;20219;-85
2021/12/16 02:53:38;;;;;;;14.13;9.13;;;;;;;2.08;100.00;97156.22;4752573;30;20233;-85
2021/12/16 02:56:16;;;;;;;14.80;9.27;;;;;;;2.19;100.00;97151.53;4713091;30;20653;-85
2021/12/16 02:59:18;;;;;;;14.10;9.03;;;;;;;2.19;100.00;97148.97;4697876;30;20218;-84
2021/12/16 03:02:26;;;;;;;14.30;7.80;;;;;;;2.26;100.00;97153.81;4685270;30;20603;-85
2021/12/16 03:05:22;;;;;;;15.07;9.27;;;;;;;2.24;100.00;97153.03;4713593;30;20228;-84
2021/12/16 03:08:36;;;;;;;;;;;;;;;;;;;;;
2021/12/16 03:15:09;;;;;;;;;;;;;;;;;;;;;
2021/12/16 03:38:26;;;;;;;;;;;;;;;;;;;;;
2021/12/16 03:45:04;;;;;;;9.20;5.83;;;;;;;2.31;100.00;97160.50;4628192;31;20227;-83
2021/12/16 03:48:28;;;;;;;;;;;;;;;;;;;;;
2021/12/16 03:51:16;;;;;;;9.33;5.53;;;;;;;2.37;100.00;97168.78;4647912;30;20222;-86
2021/12/16 03:55:22;;;;;;;;;;;;;;;;;;;;;
2021/12/16 03:58:33;;;;;;;9.60;6.00;;;;;;;2.45;100.00;97187.25;4601316;31;20741;-86
2021/12/16 04:01:44;;;;;;;7.83;5.40;;;;;;;2.46;100.00;97170.97;4613617;31;20316;-87
2021/12/16 04:07:38;;;;;;;7.00;4.97;;;;;;;2.49;100.00;97181.16;4646057;30;20208;-84
2021/12/16 04:10:37;;;;;;;7.10;4.97;;;;;;;2.48;100.00;97179.47;4681704;30;20226;-86
2021/12/16 04:17:11;;;;;;;6.87;5.20;;;;;;;2.54;100.00;97181.78;4704236;30;20852;-86
2021/12/16 04:27:53;;;;;;;;;;;;;;;;;;;;;
2021/12/16 04:34:31;;;;;;;;;;;;;;;;;;;;;
2021/12/16 04:41:57;;;;;;;10.60;7.30;;;;;;;2.60;100.00;97185.03;4681509;30;20210;-86
2021/12/16 05:03:12;;;;;;;18.20;11.77;;;;;;;2.54;100.00;97206.59;4639814;30;20203;-85
2021/12/16 05:10:11;;;;;;;19.60;11.93;;;;;;;2.56;100.00;97199.69;4624827;30;20314;-86
2021/12/16 05:13:27;;;;;;;19.80;12.50;;;;;;;2.55;100.00;97205.69;4606833;30;20205;-86
2021/12/16 05:17:05;;;;;;;;;;;;;;;;;;;;;
2021/12/16 05:19:49;;;;;;;19.83;12.93;;;;;;;2.50;100.00;97210.19;4586705;31;20286;-86
2021/12/16 05:33:10;;;;;;;23.80;14.07;;;;;;;2.49;100.00;97218.78;4584250;31;20249;-86
2021/12/16 05:43:56;;;;;;;24.53;14.63;;;;;;;2.46;100.00;97239.38;4629573;31;20212;-86
2021/12/16 05:50:10;;;;;;;26.80;17.70;;;;;;;2.47;100.00;97243.63;4612827;31;20261;-85
2021/12/16 05:53:40;;;;;;;34.77;21.57;;;;;;;2.45;100.00;97248.81;4612257;31;20206;-84
2021/12/16 06:03:54;;;;;;;36.53;20.13;;;;;;;2.47;100.00;97248.75;4647999;30;20220;-86
2021/12/16 06:07:19;;;;;;;32.83;20.20;;;;;;;2.43;100.00;97248.03;4624376;30;20190;-84
2021/12/16 06:10:01;;;;;;;34.10;20.90;;;;;;;2.43;100.00;97247.19;4599928;30;20219;-85
2021/12/16 06:13:31;;;;;;;;;;;;;;;;;;;;;
2021/12/16 06:28:34;;;;;;;18.40;11.70;;;;;;;2.47;100.00;97248.75;4699009;30;20275;-83
2021/12/16 06:31:17;;;;;;;17.70;10.90;;;;;;;2.42;100.00;97248.94;4701985;30;20203;-84
2021/12/16 06:36:14;;;;;;;18.20;11.03;;;;;;;2.42;100.00;97254.06;5107716;23;20238;-84
2021/12/16 06:38:39;;;;;;;24.40;13.43;;;;;;;2.40;100.00;97253.28;4903803;29;20225;-84
2021/12/16 06:41:05;;;;;;;20.50;12.07;;;;;;;2.35;100.00;97255.16;4933190;29;20184;-82
2021/12/16 06:43:32;;;;;;;15.90;9.60;;;;;;;2.35;100.00;97257.72;4907331;29;20319;-84
2021/12/16 06:45:59;;;;;;;17.00;9.87;;;;;;;2.45;100.00;97253.09;4900511;29;20262;-85
2021/12/16 06:48:31;;;;;;;16.40;9.60;;;;;;;2.51;100.00;97263.97;4904529;29;20178;-85
2021/12/16 06:51:01;;;;;;;15.07;9.20;;;;;;;2.52;100.00;97250.25;4905352;29;20183;-85
2021/12/16 06:53:32;;;;;;;16.37;10.27;;;;;;;2.52;100.00;97263.09;4889438;29;20266;-84
2021/12/16 06:56:10;;;;;;;15.77;9.37;;;;;;;2.49;100.00;97257.25;4889249;29;20734;-84
2021/12/16 06:59:34;;;;;;;12.73;8.43;;;;;;;2.42;100.00;97264.31;4897363;29;20181;-85
2021/12/16 07:02:16;;;;;;;13.43;7.80;;;;;;;2.41;100.00;97254.94;4898448;29;20570;-83
2021/12/16 07:04:43;;;;;;;13.43;8.20;;;;;;;2.35;100.00;97262.03;4906938;29;20578;-84
2021/12/16 07:07:10;;;;;;;15.43;8.00;;;;;;;2.39;100.00;97266.16;4902979;29;20257;-85
2021/12/16 07:09:36;;;;;;;12.67;8.00;;;;;;;2.44;100.00;97265.09;4889410;29;20210;-85
2021/12/16 07:12:02;;;;;;;13.17;8.73;;;;;;;2.46;100.00;97263.28;4888639;29;20187;-86
2021/12/16 07:14:36;;;;;;;12.47;8.17;;;;;;;2.51;100.00;97265.72;4919218;29;20214;-84
2021/12/16 07:17:08;;;;;;;12.60;7.50;;;;;;;2.54;100.00;97263.03;4889755;29;20643;-85
2021/12/16 07:19:33;;;;;;;12.47;8.70;;;;;;;2.57;100.00;97274.91;4904664;29;20186;-86
2021/12/16 07:21:59;;;;;;;15.23;8.17;;;;;;;2.52;100.00;97278.47;4888119;29;20187;-84
2021/12/16 07:24:25;;;;;;;12.20;8.17;;;;;;;2.59;100.00;97278.25;4886836;29;20226;-84
2021/12/16 07:26:50;;;;;;;11.40;7.67;;;;;;;2.61;100.00;97279.03;4903176;29;20175;-84
2021/12/16 07:29:16;;;;;;;12.67;8.47;;;;;;;2.67;100.00;97277.06;4903309;29;20231;-86
2021/12/16 07:31:47;;;;;;;13.40;6.87;;;;;;;2.67;100.00;97283.94;4887727;29;20179;-86
2021/12/16 07:34:13;;;;;;;11.57;7.07;;;;;;;2.68;100.00;97288.16;4885791;29;20210;-84
2021/12/16 07:36:41;;;;;;;9.13;7.07;;;;;;;2.69;100.00;97287.28;4886817;29;20186;-86
2021/12/16 07:39:09;;;;;;;8.97;6.43;;;;;;;2.70;100.00;97288.94;4886724;29;20186;-85
2021/12/16 07:45:07;;;;;;;15.13;8.90;;;;;;;2.73;100.00;97293.94;4840034;29;20237;-86
2021/12/16 07:47:43;;;;;;;;;;;;;;;;;;;;;
2021/12/16 07:50:18;;;;;;;11.77;9.10;;;;;;;2.79;100.00;97293.72;4829100;29;20315;-86
2021/12/16 07:52:50;;;;;;;12.50;9.70;;;;;;;2.84;100.00;97307.22;4832948;29;20192;-88
2021/12/16 07:56:19;;;;;;;;;;;;;;;;;;;;;
2021/12/16 08:03:23;;;;;;;12.17;8.10;;;;;;;2.83;100.00;97320.97;4755752;30;20193;-87
2021/12/16 08:05:54;;;;;;;9.97;7.67;;;;;;;2.90;100.00;97324.13;4719360;30;20320;-84
2021/12/16 08:08:21;;;;;;;13.33;9.13;;;;;;;2.85;100.00;97334.56;4706869;30;20637;-83
2021/12/16 08:10:47;;;;;;;13.43;9.13;;;;;;;2.85;100.00;97334.56;4701107;30;20213;-84
2021/12/16 08:13:13;;;;;;;14.20;9.03;;;;;;;2.88;100.00;97342.13;4717250;30;20202;-84
2021/12/16 08:15:40;;;;;;;13.60;8.93;;;;;;;2.87;100.00;97347.34;4705986;30;20276;-85
2021/12/16 08:18:05;;;;;;;12.07;8.43;;;;;;;2.88;100.00;97349.84;4706038;30;20206;-83
2021/12/16 08:20:31;;;;;;;13.83;9.80;;;;;;;2.84;100.00;97351.69;4717171;30;20204;-83
2021/12/16 08:22:57;;;;;;;35.83;23.03;;;;;;;2.84;100.00;97348.28;4734168;30;20297;-83
2021/12/16 08:25:24;;;;;;;23.97;15.53;;;;;;;2.85;100.00;97352.53;4721053;30;20242;-83
2021/12/16 08:27:50;;;;;;;21.70;14.10;;;;;;;2.88;100.00;97357.53;4718300;30;20198;-85
2021/12/16 08:30:19;;;;;;;18.80;12.37;;;;;;;2.84;100.00;97354.25;4716031;30;20237;-83
2021/12/16 08:32:44;;;;;;;16.13;10.97;;;;;;;2.84;100.00;97359.38;4716834;30;20202;-84
2021/12/16 08:35:11;;;;;;;21.60;14.40;;;;;;;2.87;100.00;97360.16;4716519;30;20651;-82
2021/12/16 08:37:39;;;;;;;24.53;14.33;;;;;;;2.90;100.00;97353.16;4733115;30;20196;-83
2021/12/16 08:40:06;;;;;;;21.57;12.17;;;;;;;2.96;100.00;97350.38;4771558;29;20200;-83
2021/12/16 08:42:31;;;;;;;16.43;11.03;;;;;;;2.96;100.00;97360.66;4839006;29;20195;-83
2021/12/16 08:44:57;;;;;;;16.00;11.70;;;;;;;3.01;100.00;97363.06;4886495;29;20195;-83
2021/12/16 08:47:23;;;;;;;18.60;11.60;;;;;;;3.05;100.00;97362.88;4885331;29;20277;-83
2021/12/16 08:49:49;;;;;;;18.43;12.80;;;;;;;3.07;100.00;97358.50;4900427;29;20675;-85
2021/12/16 08:52:18;;;;;;;24.93;14.37;;;;;;;3.12;100.00;97351.50;4915651;29;20191;-84
2021/12/16 08:54:43;;;;;;;19.90;13.70;;;;;;;3.13;100.00;97360.84;4899644;29;20195;-85
2021/12/16 08:57:10;;;;;;;16.77;12.37;;;;;;;3.18;100.00;97368.41;4900208;29;20195;-80
2021/12/16 08:59:37;;;;;;;12.03;9.17;;;;;;;3.25;100.00;97362.13;4882669;29;20191;-83
2021/12/16 09:02:03;;;;;;;10.60;8.10;;;;;;;3.31;100.00;97369.59;4886634;29;20599;-84
2021/12/16 09:04:28;;;;;;;11.70;8.27;;;;;;;3.30;100.00;97369.66;4901672;29;20207;-84
2021/12/16 09:07:00;;;;;;;11.80;8.00;;;;;;;3.43;100.00;97363.13;4888193;29;20208;-83
2021/12/16 09:09:26;;;;;;;17.77;11.87;;;;;;;3.49;100.00;97372.34;4888633;29;20209;-84
2021/12/16 09:12:06;;;;;;;14.13;10.13;;;;;;;3.60;100.00;97375.31;4902073;29;20606;-83
2021/12/16 09:14:32;;;;;;;12.23;7.93;;;;;;;3.60;100.00;97370.19;4904173;29;20203;-84
2021/12/16 09:16:58;;;;;;;9.83;7.17;;;;;;;3.58;100.00;97377.13;4887029;29;20715;-84
2021/12/16 09:19:23;;;;;;;10.53;6.60;;;;;;;3.46;100.00;97375.88;4886531;29;20175;-83
2021/12/16 09:21:49;;;;;;;9.13;6.27;;;;;;;3.50;100.00;97379.16;4919526;29;20183;-84
2021/12/16 09:24:20;;;;;;;9.50;6.60;;;;;;;3.59;100.00;97383.94;4902851;29;20272;-85
2021/12/16 09:26:46;;;;;;;8.33;6.90;;;;;;;3.52;99.95;97385.91;4870827;29;20207;-84
2021/12/16 09:29:11;;;;;;;7.33;4.97;;;;;;;3.51;99.76;97396.25;4900052;29;20211;-86
2021/12/16 09:31:40;;;;;;;8.20;6.20;;;;;;;3.48;99.17;97383.53;4885251;29;20275;-86
2021/12/16 09:34:08;;;;;;;6.67;5.07;;;;;;;3.55;98.80;97388.38;4901453;29;20206;-85
2021/12/16 09:36:39;;;;;;;8.13;6.93;;;;;;;3.64;98.75;97385.44;4903265;29;20191;-86
2021/12/16 09:39:13;;;;;;;11.50;8.70;;;;;;;3.72;98.27;97389.44;4887568;29;20210;-83
2021/12/16 09:41:41;;;;;;;6.73;5.90;;;;;;;3.76;97.76;97394.38;4902901;29;20179;-84
2021/12/16 09:44:08;;;;;;;6.80;5.67;;;;;;;3.75;96.58;97394.44;4918630;29;20202;-84
2021/12/16 09:46:33;;;;;;;7.40;6.40;;;;;;;3.85;95.64;97391.44;4888764;29;20199;-84
2021/12/16 09:48:59;;;;;;;7.07;6.33;;;;;;;4.01;95.29;97398.53;4904996;29;20198;-85
2021/12/16 09:51:27;;;;;;;5.93;5.10;;;;;;;4.13;95.41;97395.47;4887356;29;20180;-84
2021/12/16 09:53:57;;;;;;;6.40;5.20;;;;;;;4.18;95.11;97399.53;4887064;29;20211;-83
2021/12/16 09:56:24;;;;;;;7.00;5.07;;;;;;;4.25;95.30;97400.94;4885438;29;20636;-83
2021/12/16 09:58:51;;;;;;;6.80;5.23;;;;;;;4.31;95.53;97399.84;4903004;29;20203;-85
2021/12/16 10:01:17;;;;;;;6.93;5.40;;;;;;;4.35;95.37;97403.13;4887937;29;20188;-85
2021/12/16 10:03:46;;;;;;;7.73;6.10;;;;;;;4.42;94.90;97407.97;4902129;29;20182;-84
2021/12/16 10:06:18;;;;;;;7.53;6.50;;;;;;;4.43;94.73;97408.81;4888663;29;20663;-83
2021/12/16 10:09:00;;;;;;;7.37;6.27;;;;;;;4.50;94.47;97407.63;4902035;29;20263;-84
2021/12/16 10:11:36;;;;;;;5.83;4.87;;;;;;;4.50;94.24;97407.63;4910022;29;20192;-84
2021/12/16 10:19:16;;;;;;;5.47;4.33;;;;;;;4.57;94.46;97411.59;4903486;29;20261;-85
2021/12/16 10:21:43;;;;;;;5.63;4.37;;;;;;;4.49;94.69;97411.09;4902237;29;20234;-85
2021/12/16 10:24:33;;;;;;;4.97;4.10;;;;;;;4.26;95.18;97406.94;4902076;29;20265;-84
2021/12/16 10:27:14;;;;;;;6.47;4.60;;;;;;;4.34;95.86;97404.03;4900472;29;20193;-81
2021/12/16 10:29:56;;;;;;;6.77;5.10;;;;;;;4.39;95.62;97402.09;4917788;29;20208;-83
2021/12/16 10:32:43;;;;;;;7.63;5.73;;;;;;;4.38;94.79;97390.97;4884009;29;20206;-83
2021/12/16 10:36:01;;;;;;;5.87;5.07;;;;;;;4.47;95.16;97389.75;4900959;29;20218;-86
2021/12/16 10:49:06;;;;;;;7.47;5.70;;;;;;;4.52;94.38;97398.97;4812368;29;20219;-83
2021/12/16 10:52:09;;;;;;;13.60;9.33;;;;;;;4.31;94.20;97402.41;4793921;29;20194;-86
2021/12/16 10:58:51;;;;;;;14.97;10.17;;;;;;;4.23;94.03;97413.00;4818340;29;20198;-88
2021/12/16 11:12:26;;;;;;;9.43;7.53;;;;;;;4.56;93.26;97409.94;4679256;30;20303;-85
2021/12/16 11:15:10;;;;;;;10.47;7.60;;;;;;;4.58;92.96;97407.28;4667273;30;20219;-85
2021/12/16 11:18:20;;;;;;;11.30;8.13;;;;;;;4.49;93.94;97400.81;4666064;30;20282;-84
2021/12/16 11:20:55;;;;;;;11.10;7.87;;;;;;;4.54;93.50;97407.44;4645033;30;20203;-83
2021/12/16 11:23:29;;;;;;;11.57;8.60;;;;;;;4.49;93.62;97413.66;4644655;30;20200;-84
2021/12/16 11:26:15;;;;;;;16.67;10.97;;;;;;;4.55;93.80;97405.69;4701495;30;20631;-84
2021/12/16 11:28:49;;;;;;;11.53;8.57;;;;;;;4.49;93.39;97408.53;4716607;30;20624;-85
2021/12/16 11:31:23;;;;;;;27.23;15.73;;;;;;;4.57;93.55;97400.47;4727407;30;20295;-85
2021/12/16 11:45:00;;;;;;;12.77;9.00;;;;;;;4.91;92.32;97405.00;4832772;29;20279;-85
2021/12/16 11:51:13;;;;;;;;;;;;;;;;;;;;;
2021/12/16 11:57:09;;;;;;;9.20;7.33;;;;;;;4.88;93.25;97408.56;4815446;29;20233;-86
2021/12/16 11:59:58;;;;;;;8.23;6.73;;;;;;;4.95;92.10;97398.84;4829760;29;20197;-86
2021/12/16 12:02:59;;;;;;;9.63;7.63;;;;;;;4.90;91.79;97405.91;4855339;29;20177;-85
2021/12/16 12:06:01;;;;;;;11.63;7.40;;;;;;;4.88;92.93;97403.41;4846386;29;20224;-86
2021/12/16 12:09:02;;;;;;;;;;;;;;;;;;;;;
2021/12/16 12:11:55;;;;;;;8.30;6.83;;;;;;;5.06;92.47;97399.19;4841646;29;20216;-86
2021/12/16 12:14:20;;;;;;;7.80;6.40;;;;;;;5.19;91.97;97396.88;4805184;29;20245;-82
2021/12/16 12:17:22;;;;;;;9.47;7.00;;;;;;;5.23;92.16;97394.09;4842857;29;20292;-87
2021/12/16 12:24:16;;;;;;;9.33;6.73;;;;;;;5.42;92.18;97395.84;4804618;29;20225;-86
2021/12/16 12:27:30;;;;;;;7.60;6.13;;;;;;;5.56;91.61;97383.13;4785737;29;20273;-86
2021/12/16 12:31:11;;;;;;;6.27;5.17;;;;;;;5.54;91.39;97372.06;4797431;29;20221;-87
2021/12/16 12:34:29;;;;;;;;;;;;;;;;;;;;;
2021/12/16 12:37:04;;;;;;;5.97;4.53;;;;;;;5.58;89.50;97377.03;4788018;30;20213;-86
2021/12/16 12:39:41;;;;;;;6.07;4.97;;;;;;;5.63;89.22;97376.78;4768863;29;20186;-81
2021/12/16 12:42:07;;;;;;;5.87;5.03;;;;;;;5.55;88.98;97366.84;4771318;30;20753;-86
2021/12/16 12:45:15;;;;;;;;;;;;;;;;;;;;;
2021/12/16 12:48:24;;;;;;;7.73;5.10;;;;;;;5.86;88.63;97373.13;4759289;30;20212;-85
2021/12/16 12:50:51;;;;;;;5.67;5.07;;;;;;;5.69;88.75;97368.78;4782245;30;20239;-85
2021/12/16 12:53:32;;;;;;;;;;;;;;;;;;;;;
2021/12/16 12:56:10;;;;;;;8.00;5.00;;;;;;;5.71;88.89;97372.09;4758289;30;20223;-87
2021/12/16 13:02:08;;;;;;;8.13;6.37;;;;;;;5.69;89.08;97371.34;4843170;29;20728;-84
2021/12/16 13:05:17;;;;;;;8.27;6.57;;;;;;;5.68;89.68;97377.41;4822436;29;20343;-85
2021/12/16 13:07:45;;;;;;;6.43;5.13;;;;;;;5.81;89.14;97380.22;4844607;29;20283;-85
2021/12/16 13:10:16;;;;;;;5.73;5.13;;;;;;;5.73;88.74;97380.59;4883294;29;20266;-84
2021/12/16 13:12:57;;;;;;;6.30;4.87;;;;;;;5.69;86.97;97382.50;4901281;29;20234;-85
2021/12/16 13:15:29;;;;;;;10.17;8.60;;;;;;;5.54;87.60;97378.06;4912443;29;20226;-84
2021/12/16 13:36:03;;;;;;;8.80;6.83;;;;;;;5.35;88.44;97383.22;5100996;23;20616;-86
2021/12/16 13:38:50;;;;;;;7.37;6.40;;;;;;;5.32;88.29;97380.81;4865063;29;20195;-86
2021/12/16 13:41:22;;;;;;;8.60;7.10;;;;;;;5.46;88.44;97379.31;4881720;29;20583;-81
2021/12/16 13:44:01;;;;;;;9.63;7.47;;;;;;;5.37;88.34;97386.56;4883760;29;20192;-83
2021/12/16 14:03:28;;;;;;;10.53;8.40;;;;;;;5.23;89.21;97382.97;4888337;29;20238;-84
2021/12/16 14:06:15;;;;;;;16.53;11.07;;;;;;;5.23;89.28;97386.38;4888560;29;20291;-84
2021/12/16 14:09:04;;;;;;;16.73;9.80;;;;;;;5.21;89.78;97388.19;4886270;29;20282;-83
2021/12/16 14:15:44;;;;;;;10.33;7.13;;;;;;;5.17;89.85;97394.38;4860042;29;20215;-87
2021/12/16 14:22:57;;;;;;;12.37;8.53;;;;;;;5.08;90.50;97397.38;4858238;29;20216;-85
2021/12/16 14:35:27;;;;;;;8.47;6.47;;;;;;;5.02;90.35;97402.78;4866923;29;20708;-82
2021/12/16 14:38:24;;;;;;;;;;;;;;;;;;;;;
2021/12/16 14:41:05;;;;;;;8.63;6.53;;;;;;;5.04;90.27;97403.56;4903700;29;20288;-83
2021/12/16 14:43:52;;;;;;;10.77;7.23;;;;;;;5.08;89.67;97399.94;4898116;29;20260;-82
2021/12/16 14:46:31;;;;;;;10.30;7.37;;;;;;;5.10;89.39;97405.84;4903303;29;20666;-81
2021/12/16 14:49:43;;;;;;;7.97;6.23;;;;;;;5.09;88.37;97414.47;4904510;29;20297;-85
2021/12/16 14:52:15;;;;;;;11.47;6.10;;;;;;;5.15;87.79;97408.25;4912356;29;20205;-83
2021/12/16 14:54:54;;;;;;;9.03;6.77;;;;;;;5.17;87.50;97409.84;4899438;29;20209;-84
2021/12/16 14:57:29;;;;;;;8.53;6.33;;;;;;;5.12;87.87;97414.34;4897755;29;20189;-82
2021/12/16 14:59:54;;;;;;;8.43;6.37;;;;;;;5.12;88.39;97409.19;4881288;29;20234;-83
2021/12/16 15:02:27;;;;;;;6.90;5.80;;;;;;;5.11;88.56;97415.25;4890497;29;20195;-83
2021/12/16 15:04:56;;;;;;;7.43;5.70;;;;;;;5.02;88.72;97418.22;4927584;29;20201;-86
2021/12/16 15:07:24;;;;;;;8.83;6.20;;;;;;;5.05;88.41;97418.13;4904216;29;20186;-85
2021/12/16 15:09:50;;;;;;;8.43;6.97;;;;;;;5.04;88.63;97421.59;4926712;29;20201;-83
2021/12/16 15:12:40;;;;;;;7.80;7.00;;;;;;;4.99;88.56;97424.38;4915192;29;20201;-83
2021/12/16 15:36:07;;;;;;;10.87;8.40;;;;;;;4.42;91.73;97423.41;4857760;29;20768;-85
2021/12/16 15:53:58;;;;;;;14.40;10.13;;;;;;;3.93;93.86;97442.56;4919737;29;20223;-84
2021/12/16 15:57:26;;;;;;;;;;;;;;;;;;;;;
2021/12/16 16:03:46;;;;;;;15.40;11.47;;;;;;;3.67;95.27;97444.41;4896281;29;20200;-85
2021/12/16 16:25:58;;;;;;;13.90;10.80;;;;;;;3.26;96.92;97442.53;4802665;29;20325;-84
2021/12/16 16:33:04;;;;;;;14.97;10.83;;;;;;;3.21;97.34;97455.56;4839041;29;20213;-85
2021/12/16 16:40:07;;;;;;;17.93;11.90;;;;;;;3.22;98.07;97462.38;4783282;29;20216;-88
2021/12/16 16:46:17;;;;;;;17.50;12.43;;;;;;;3.17;97.61;97455.72;4752053;30;20231;-77
2021/12/16 18:01:48;;;;;;;29.83;19.40;;;;;;;2.38;99.28;97420.88;4824498;29;20191;-90
2021/12/16 18:07:10;;;;;;;18.07;13.07;;;;;;;2.38;99.54;97418.31;5221446;23;20648;-86
2021/12/16 18:09:52;;;;;;;21.57;15.23;;;;;;;2.35;100.00;97414.13;4894232;29;20644;-83
2021/12/16 18:13:32;;;;;;;27.57;15.67;;;;;;;2.39;100.00;97423.41;4907518;29;20202;-86
2021/12/16 18:26:17;;;;;;;27.57;16.63;;;;;;;2.29;100.00;97437.41;5009063;23;20250;-80
2021/12/16 19:32:53;;;;;;;27.07;15.90;;;;;;;1.81;100.00;97478.25;6069343;23;20908;-85
2021/12/16 19:39:11;;;;;;;27.90;16.83;;;;;;;1.68;100.00;97472.69;6100931;23;20218;-88
2021/12/16 19:42:17;;;;;;;26.97;17.10;;;;;;;1.75;100.00;97466.47;6101335;23;20146;-87
2021/12/16 19:44:44;;;;;;;31.20;18.27;;;;;;;1.77;100.00;97472.41;6100181;23;20692;-84
2021/12/16 19:47:13;;;;;;;36.40;20.80;;;;;;;1.77;100.00;97474.97;6100644;23;20167;-85
2021/12/16 19:50:16;;;;;;;29.07;19.10;;;;;;;1.74;100.00;97476.75;6098330;23;20145;-85
2021/12/16 19:52:45;;;;;;;32.83;19.53;;;;;;;1.80;100.00;97476.59;5992824;23;20200;-86
2021/12/16 19:55:36;;;;;;;31.10;18.47;;;;;;;1.76;100.00;97477.53;6042515;23;20231;-88
2021/12/16 19:58:06;;;;;;;31.33;18.57;;;;;;;1.74;100.00;97474.19;6014689;23;20237;-86
2021/12/16 20:01:13;;;;;;;28.83;17.53;;;;;;;1.67;100.00;97479.50;6015950;23;20214;-85
2021/12/16 20:03:53;;;;;;;30.50;18.50;;;;;;;1.65;100.00;97472.75;6077531;23;20215;-89
2021/12/16 20:09:40;;;;;;;31.07;18.67;;;;;;;1.64;100.00;97468.53;6104231;23;20736;-84
2021/12/16 20:12:16;;;;;;;33.57;18.80;;;;;;;1.62;100.00;97471.13;6098111;23;20159;-86
2021/12/16 21:14:46;;;;;;;;;;;;;;;;;;;;;
2021/12/16 21:21:15;;;;;;;;;;;;;;;;;;;;;
2021/12/16 21:24:52;;;;;;;24.43;15.17;;;;;;;1.11;100.00;97483.72;6098906;23;20259;-88
2021/12/16 21:27:49;;;;;;;26.10;15.13;;;;;;;1.06;100.00;97483.84;6032091;23;20170;-84
2021/12/16 21:36:46;;;;;;;26.20;15.80;;;;;;;1.02;100.00;97481.41;6121975;23;20288;-88
2021/12/16 21:58:07;;;;;;;29.17;18.83;;;;;;;0.99;100.00;97494.31;6117810;23;20276;-85
2021/12/16 22:00:33;;;;;;;29.93;19.87;;;;;;;0.96;100.00;97487.53;6067740;23;20183;-84
2021/12/16 22:03:01;;;;;;;22.80;16.23;;;;;;;1.04;100.00;97495.84;6068223;23;20609;-84
2021/12/16 22:05:27;;;;;;;23.00;14.60;;;;;;;1.05;100.00;97494.94;6078484;23;20176;-86
2021/12/16 22:07:53;;;;;;;25.37;15.40;;;;;;;1.08;100.00;97496.59;6063871;23;20771;-83
2021/12/16 22:10:18;;;;;;;20.33;13.67;;;;;;;1.18;100.00;97498.03;6064460;23;20167;-84
2021/12/16 22:12:44;;;;;;;21.47;13.90;;;;;;;1.22;100.00;97491.09;6085788;23;20168;-84
2021/12/16 22:15:13;;;;;;;21.07;13.73;;;;;;;1.26;100.00;97497.81;6063427;23;20198;-83
2021/12/16 22:17:39;;;;;;;18.80;11.90;;;;;;;1.33;100.00;97492.47;6064449;23;20612;-85
2021/12/16 22:20:07;;;;;;;22.33;13.27;;;;;;;1.39;100.00;97510.19;6087655;23;20212;-83
2021/12/16 22:22:32;;;;;;;22.67;12.87;;;;;;;1.42;100.00;97499.91;6061929;23;20614;-87
2021/12/16 22:24:58;;;;;;;22.97;12.70;;;;;;;1.48;100.00;97495.47;6087899;23;20191;-85
2021/12/16 22:27:23;;;;;;;24.40;12.83;;;;;;;1.53;100.00;97502.13;6063798;23;20167;-86
2021/12/16 22:29:48;;;;;;;20.83;12.47;;;;;;;1.65;100.00;97495.81;6087837;23;20161;-85
2021/12/16 22:32:14;;;;;;;20.83;12.57;;;;;;;1.67;100.00;97497.44;6086883;23;20168;-85
2021/12/16 22:34:39;;;;;;;20.10;13.63;;;;;;;1.81;100.00;97499.59;6086568;23;20648;-85
2021/12/16 22:37:08;;;;;;;19.77;12.87;;;;;;;1.84;100.00;97506.34;6087365;23;20176;-85
2021/12/16 22:39:35;;;;;;;19.80;12.73;;;;;;;1.88;100.00;97506.22;6086938;23;20180;-85
2021/12/16 22:42:03;;;;;;;20.60;12.40;;;;;;;1.91;100.00;97497.56;6063249;23;20161;-83
2021/12/16 22:44:29;;;;;;;21.67;13.00;;;;;;;1.97;100.00;97500.81;6039775;23;20250;-84
2021/12/16 22:46:57;;;;;;;22.10;13.63;;;;;;;2.02;100.00;97499.81;6087291;23;20184;-84
2021/12/16 22:49:22;;;;;;;18.03;12.00;;;;;;;2.08;100.00;97502.19;6063271;23;20157;-86
2021/12/16 22:51:48;;;;;;;19.50;12.87;;;;;;;2.12;100.00;97504.63;6063175;23;20173;-84
2021/12/16 22:54:15;;;;;;;19.97;12.27;;;;;;;2.12;100.00;97504.63;6063204;23;20187;-84
2021/12/16 22:56:44;;;;;;;17.10;11.83;;;;;;;2.16;100.00;97506.19;6063073;23;20168;-85
2021/12/16 22:59:10;;;;;;;18.10;11.63;;;;;;;2.19;100.00;97507.81;6062904;23;20795;-85
2021/12/16 23:01:38;;;;;;;24.53;14.73;;;;;;;2.31;100.00;97510.00;6062761;23;20168;-85
2021/12/16 23:04:05;;;;;;;18.97;12.70;;;;;;;2.27;100.00;97498.16;6063128;23;20225;-83
2021/12/16 23:06:31;;;;;;;20.63;12.83;;;;;;;2.31;100.00;97504.03;6063636;23;20157;-85
2021/12/16 23:09:00;;;;;;;21.50;12.87;;;;;;;2.27;100.00;97498.16;6065378;23;20484;-86
2021/12/16 23:11:26;;;;;;;20.73;13.07;;;;;;;2.33;100.00;97497.97;6065663;23;20510;-87
2021/12/16 23:13:55;;;;;;;19.80;12.10;;;;;;;2.31;100.00;97491.22;6065705;23;20192;-86
2021/12/16 23:16:28;;;;;;;21.93;13.10;;;;;;;2.30;100.00;97495.50;6065747;23;20219;-85
2021/12/16 23:24:05;;;;;;;20.60;13.77;;;;;;;2.33;100.00;97495.38;6088458;23;20202;-86
2021/12/16 23:26:31;;;;;;;19.27;12.57;;;;;;;2.37;100.00;97496.94;6089153;23;20607;-86
2021/12/16 23:28:57;;;;;;;22.07;14.10;;;;;;;2.38;100.00;97485.81;6065254;23;20193;-86
2021/12/16 23:31:26;;;;;;;25.37;14.03;;;;;;;2.40;100.00;97502.00;6064576;23;20161;-86
2021/12/16 23:33:54;;;;;;;25.30;15.13;;;;;;;2.40;100.00;97499.44;6090665;23;20251;-86
2021/12/16 23:36:19;;;;;;;25.53;14.77;;;;;;;2.42;100.00;97494.25;6065081;23;20599;-86
2021/12/16 23:38:56;;;;;;;23.43;16.10;;;;;;;2.47;100.00;97487.22;6089519;23;20176;-86
2021/12/16 23:47:02;;;;;;;23.03;14.67;;;;;;;2.68;100.00;97506.22;6091181;23;20183;-86
2021/12/16 23:54:55;;;;;;;29.80;17.23;;;;;;;2.65;100.00;97508.88;6090806;23;20523;-87
2021/12/16 23:57:21;;;;;;;21.83;14.87;;;;;;;2.73;100.00;97514.56;6091042;23;20160;-85
2021/12/16 23:59:48;;;;;;;26.30;17.00;;;;;;;2.67;100.00;97519.94;6090747;23;20192;-86
